sensor_id;sensor_type;location;lat;lon;timestamp;P1;durP1;ratioP1;P2;durP2;ratioP2
44328;SDS011;30039;51.462;6.892;2023-01-29T00:02:11;41.70;;;20.70;;
44328;SDS011;30039;51.462;6.892;2023-01-29T00:04:57;45.88;;;21.35;;
44328;SDS011;30039;51.462;6.892;2023-01-29T00:07:44;44.00;;;20.63;;
44328;SDS011;30039;51.462;6.892;2023-01-29T00:10:30;42.63;;;20.67;;
44328;SDS011;30039;51.462;6.892;2023-01-29T00:13:16;41.97;;;19.13;;
44328;SDS011;30039;51.462;6.892;2023-01-29T00:16:02;43.38;;;19.75;;
44328;SDS011;30039;51.462;6.892;2023-01-29T00:18:48;46.53;;;22.15;;
44328;SDS011;30039;51.462;6.892;2023-01-29T00:21:35;49.28;;;21.55;;
44328;SDS011;30039;51.462;6.892;2023-01-29T00:24:22;49.38;;;22.00;;
44328;SDS011;30039;51.462;6.892;2023-01-29T00:27:10;43.40;;;20.35;;
44328;SDS011;30039;51.462;6.892;2023-01-29T00:29:57;45.35;;;21.63;;
44328;SDS011;30039;51.462;6.892;2023-01-29T00:32:57;42.25;;;20.05;;
44328;SDS011;30039;51.462;6.892;2023-01-29T00:35:42;45.67;;;21.25;;
44328;SDS011;30039;51.462;6.892;2023-01-29T00:38:28;48.00;;;21.70;;
44328;SDS011;30039;51.462;6.892;2023-01-29T00:41:14;46.20;;;20.92;;
44328;SDS011;30039;51.462;6.892;2023-01-29T00:44:19;41.40;;;20.15;;
44328;SDS011;30039;51.462;6.892;2023-01-29T00:47:23;43.38;;;20.90;;
44328;SDS011;30039;51.462;6.892;2023-01-29T00:50:15;45.85;;;20.77;;
44328;SDS011;30039;51.462;6.892;2023-01-29T00:53:02;45.95;;;20.55;;
44328;SDS011;30039;51.462;6.892;2023-01-29T00:55:48;45.15;;;21.15;;
44328;SDS011;30039;51.462;6.892;2023-01-29T00:58:33;44.80;;;21.92;;
44328;SDS011;30039;51.462;6.892;2023-01-29T01:01:20;46.67;;;21.90;;
44328;SDS011;30039;51.462;6.892;2023-01-29T01:04:25;44.92;;;20.38;;
44328;SDS011;30039;51.462;6.892;2023-01-29T01:07:12;48.70;;;22.02;;
44328;SDS011;30039;51.462;6.892;2023-01-29T01:09:59;47.58;;;21.23;;
44328;SDS011;30039;51.462;6.892;2023-01-29T01:13:05;45.25;;;20.48;;
44328;SDS011;30039;51.462;6.892;2023-01-29T01:15:51;43.60;;;20.83;;
44328;SDS011;30039;51.462;6.892;2023-01-29T01:18:38;47.78;;;22.33;;
44328;SDS011;30039;51.462;6.892;2023-01-29T01:21:23;42.60;;;20.45;;
44328;SDS011;30039;51.462;6.892;2023-01-29T01:24:13;46.58;;;22.08;;
44328;SDS011;30039;51.462;6.892;2023-01-29T01:26:59;43.10;;;20.92;;
44328;SDS011;30039;51.462;6.892;2023-01-29T01:29:45;53.75;;;21.85;;
44328;SDS011;30039;51.462;6.892;2023-01-29T01:32:32;46.78;;;21.08;;
44328;SDS011;30039;51.462;6.892;2023-01-29T01:35:18;43.90;;;20.85;;
44328;SDS011;30039;51.462;6.892;2023-01-29T01:38:04;43.75;;;20.52;;
44328;SDS011;30039;51.462;6.892;2023-01-29T01:40:49;48.17;;;20.75;;
44328;SDS011;30039;51.462;6.892;2023-01-29T01:43:45;49.55;;;21.27;;
44328;SDS011;30039;51.462;6.892;2023-01-29T01:46:33;45.60;;;20.45;;
44328;SDS011;30039;51.462;6.892;2023-01-29T01:49:19;45.70;;;21.25;;
44328;SDS011;30039;51.462;6.892;2023-01-29T01:52:06;44.15;;;20.80;;
44328;SDS011;30039;51.462;6.892;2023-01-29T01:54:53;47.50;;;21.15;;
44328;SDS011;30039;51.462;6.892;2023-01-29T01:57:39;49.33;;;22.00;;
44328;SDS011;30039;51.462;6.892;2023-01-29T02:00:26;52.67;;;21.85;;
44328;SDS011;30039;51.462;6.892;2023-01-29T02:03:12;44.25;;;20.27;;
44328;SDS011;30039;51.462;6.892;2023-01-29T02:06:16;51.47;;;22.60;;
44328;SDS011;30039;51.462;6.892;2023-01-29T02:09:21;47.05;;;21.98;;
44328;SDS011;30039;51.462;6.892;2023-01-29T02:12:20;54.85;;;22.60;;
44328;SDS011;30039;51.462;6.892;2023-01-29T02:15:06;49.05;;;23.52;;
44328;SDS011;30039;51.462;6.892;2023-01-29T02:17:52;50.35;;;22.88;;
44328;SDS011;30039;51.462;6.892;2023-01-29T02:20:38;47.95;;;22.08;;
44328;SDS011;30039;51.462;6.892;2023-01-29T02:26:52;50.17;;;22.88;;
44328;SDS011;30039;51.462;6.892;2023-01-29T02:35:41;55.97;;;23.13;;
44328;SDS011;30039;51.462;6.892;2023-01-29T02:41:45;48.95;;;22.45;;
44328;SDS011;30039;51.462;6.892;2023-01-29T02:48:02;49.53;;;21.75;;
44328;SDS011;30039;51.462;6.892;2023-01-29T02:50:53;49.60;;;22.83;;
44328;SDS011;30039;51.462;6.892;2023-01-29T02:53:53;46.67;;;20.95;;
44328;SDS011;30039;51.462;6.892;2023-01-29T02:59:32;45.67;;;21.27;;
44328;SDS011;30039;51.462;6.892;2023-01-29T03:02:31;44.65;;;21.02;;
44328;SDS011;30039;51.462;6.892;2023-01-29T03:05:20;45.03;;;20.48;;
44328;SDS011;30039;51.462;6.892;2023-01-29T03:08:10;47.22;;;20.85;;
44328;SDS011;30039;51.462;6.892;2023-01-29T03:10:56;46.55;;;20.83;;
44328;SDS011;30039;51.462;6.892;2023-01-29T03:13:54;41.35;;;20.17;;
44328;SDS011;30039;51.462;6.892;2023-01-29T03:16:46;46.25;;;20.80;;
44328;SDS011;30039;51.462;6.892;2023-01-29T03:19:37;46.78;;;20.75;;
44328;SDS011;30039;51.462;6.892;2023-01-29T03:22:35;42.55;;;21.38;;
44328;SDS011;30039;51.462;6.892;2023-01-29T03:25:22;47.67;;;20.77;;
44328;SDS011;30039;51.462;6.892;2023-01-29T03:28:27;46.00;;;21.65;;
44328;SDS011;30039;51.462;6.892;2023-01-29T03:34:40;43.05;;;20.20;;
44328;SDS011;30039;51.462;6.892;2023-01-29T03:40:13;45.42;;;21.45;;
44328;SDS011;30039;51.462;6.892;2023-01-29T03:43:10;48.60;;;21.13;;
44328;SDS011;30039;51.462;6.892;2023-01-29T03:46:07;49.45;;;21.90;;
44328;SDS011;30039;51.462;6.892;2023-01-29T03:49:05;41.90;;;21.05;;
44328;SDS011;30039;51.462;6.892;2023-01-29T03:52:13;40.00;;;19.23;;
44328;SDS011;30039;51.462;6.892;2023-01-29T03:55:13;46.95;;;20.83;;
44328;SDS011;30039;51.462;6.892;2023-01-29T03:58:11;49.72;;;20.70;;
44328;SDS011;30039;51.462;6.892;2023-01-29T04:01:16;39.88;;;19.45;;
44328;SDS011;30039;51.462;6.892;2023-01-29T04:04:05;42.80;;;20.25;;
44328;SDS011;30039;51.462;6.892;2023-01-29T04:06:54;41.53;;;20.30;;
44328;SDS011;30039;51.462;6.892;2023-01-29T04:09:46;46.53;;;20.58;;
44328;SDS011;30039;51.462;6.892;2023-01-29T04:12:42;43.55;;;20.75;;
44328;SDS011;30039;51.462;6.892;2023-01-29T04:15:30;48.22;;;21.95;;
44328;SDS011;30039;51.462;6.892;2023-01-29T04:18:18;48.10;;;20.70;;
44328;SDS011;30039;51.462;6.892;2023-01-29T04:21:04;48.97;;;21.48;;
44328;SDS011;30039;51.462;6.892;2023-01-29T04:23:51;44.95;;;20.90;;
44328;SDS011;30039;51.462;6.892;2023-01-29T04:32:36;43.88;;;19.45;;
44328;SDS011;30039;51.462;6.892;2023-01-29T04:44:11;46.38;;;20.50;;
44328;SDS011;30039;51.462;6.892;2023-01-29T04:47:04;43.15;;;19.88;;
44328;SDS011;30039;51.462;6.892;2023-01-29T04:49:55;42.58;;;20.48;;
44328;SDS011;30039;51.462;6.892;2023-01-29T04:52:46;46.80;;;20.83;;
44328;SDS011;30039;51.462;6.892;2023-01-29T04:58:31;38.03;;;18.42;;
44328;SDS011;30039;51.462;6.892;2023-01-29T05:01:18;45.97;;;19.80;;
44328;SDS011;30039;51.462;6.892;2023-01-29T05:04:06;42.88;;;20.85;;
44328;SDS011;30039;51.462;6.892;2023-01-29T05:06:53;45.47;;;20.50;;
44328;SDS011;30039;51.462;6.892;2023-01-29T05:09:41;43.80;;;18.60;;
44328;SDS011;30039;51.462;6.892;2023-01-29T05:12:28;41.28;;;18.70;;
44328;SDS011;30039;51.462;6.892;2023-01-29T05:15:19;47.40;;;21.10;;
44328;SDS011;30039;51.462;6.892;2023-01-29T05:18:06;41.58;;;19.48;;
44328;SDS011;30039;51.462;6.892;2023-01-29T05:20:53;43.63;;;19.98;;
44328;SDS011;30039;51.462;6.892;2023-01-29T05:23:40;47.85;;;20.98;;
44328;SDS011;30039;51.462;6.892;2023-01-29T05:26:37;48.10;;;20.67;;
44328;SDS011;30039;51.462;6.892;2023-01-29T05:29:45;44.22;;;20.17;;
44328;SDS011;30039;51.462;6.892;2023-01-29T05:32:31;45.97;;;19.55;;
44328;SDS011;30039;51.462;6.892;2023-01-29T05:35:17;46.75;;;19.90;;
44328;SDS011;30039;51.462;6.892;2023-01-29T05:38:03;43.05;;;19.85;;
44328;SDS011;30039;51.462;6.892;2023-01-29T05:40:49;44.58;;;20.92;;
44328;SDS011;30039;51.462;6.892;2023-01-29T05:43:39;47.28;;;19.80;;
44328;SDS011;30039;51.462;6.892;2023-01-29T05:46:25;40.13;;;18.88;;
44328;SDS011;30039;51.462;6.892;2023-01-29T05:49:11;48.78;;;21.08;;
44328;SDS011;30039;51.462;6.892;2023-01-29T05:51:58;44.17;;;20.10;;
44328;SDS011;30039;51.462;6.892;2023-01-29T05:54:43;44.55;;;19.92;;
44328;SDS011;30039;51.462;6.892;2023-01-29T05:57:29;44.03;;;19.23;;
44328;SDS011;30039;51.462;6.892;2023-01-29T06:00:17;45.47;;;21.35;;
44328;SDS011;30039;51.462;6.892;2023-01-29T06:03:02;46.85;;;20.45;;
44328;SDS011;30039;51.462;6.892;2023-01-29T06:05:48;50.13;;;20.02;;
44328;SDS011;30039;51.462;6.892;2023-01-29T06:08:38;42.75;;;19.58;;
44328;SDS011;30039;51.462;6.892;2023-01-29T06:11:24;41.08;;;18.88;;
44328;SDS011;30039;51.462;6.892;2023-01-29T06:14:12;44.75;;;19.83;;
44328;SDS011;30039;51.462;6.892;2023-01-29T06:16:58;43.33;;;20.58;;
44328;SDS011;30039;51.462;6.892;2023-01-29T06:19:44;44.13;;;19.85;;
44328;SDS011;30039;51.462;6.892;2023-01-29T06:22:29;50.97;;;20.95;;
44328;SDS011;30039;51.462;6.892;2023-01-29T06:25:17;40.45;;;18.98;;
44328;SDS011;30039;51.462;6.892;2023-01-29T06:28:03;40.40;;;18.48;;
44328;SDS011;30039;51.462;6.892;2023-01-29T06:30:49;44.78;;;20.10;;
44328;SDS011;30039;51.462;6.892;2023-01-29T06:33:36;45.65;;;20.85;;
44328;SDS011;30039;51.462;6.892;2023-01-29T06:36:22;42.65;;;18.92;;
44328;SDS011;30039;51.462;6.892;2023-01-29T06:39:08;45.60;;;20.50;;
44328;SDS011;30039;51.462;6.892;2023-01-29T06:41:55;40.00;;;19.20;;
44328;SDS011;30039;51.462;6.892;2023-01-29T06:44:41;43.58;;;20.17;;
44328;SDS011;30039;51.462;6.892;2023-01-29T06:47:26;40.90;;;17.73;;
44328;SDS011;30039;51.462;6.892;2023-01-29T06:50:15;40.88;;;19.15;;
44328;SDS011;30039;51.462;6.892;2023-01-29T06:53:04;44.03;;;17.40;;
44328;SDS011;30039;51.462;6.892;2023-01-29T06:55:50;44.67;;;19.30;;
44328;SDS011;30039;51.462;6.892;2023-01-29T06:58:36;41.58;;;19.55;;
44328;SDS011;30039;51.462;6.892;2023-01-29T07:01:23;44.60;;;19.30;;
44328;SDS011;30039;51.462;6.892;2023-01-29T07:04:09;47.95;;;20.13;;
44328;SDS011;30039;51.462;6.892;2023-01-29T07:06:57;44.53;;;20.45;;
44328;SDS011;30039;51.462;6.892;2023-01-29T07:09:43;43.20;;;20.17;;
44328;SDS011;30039;51.462;6.892;2023-01-29T07:12:29;43.50;;;19.05;;
44328;SDS011;30039;51.462;6.892;2023-01-29T07:15:15;44.08;;;20.38;;
44328;SDS011;30039;51.462;6.892;2023-01-29T07:18:04;44.08;;;20.13;;
44328;SDS011;30039;51.462;6.892;2023-01-29T07:21:02;43.30;;;20.38;;
44328;SDS011;30039;51.462;6.892;2023-01-29T07:23:50;42.03;;;20.13;;
44328;SDS011;30039;51.462;6.892;2023-01-29T07:26:36;44.05;;;18.45;;
44328;SDS011;30039;51.462;6.892;2023-01-29T07:29:22;42.97;;;18.92;;
44328;SDS011;30039;51.462;6.892;2023-01-29T07:32:10;39.40;;;18.83;;
44328;SDS011;30039;51.462;6.892;2023-01-29T07:34:56;45.20;;;20.45;;
44328;SDS011;30039;51.462;6.892;2023-01-29T07:37:43;41.42;;;19.38;;
44328;SDS011;30039;51.462;6.892;2023-01-29T07:40:30;39.97;;;17.20;;
44328;SDS011;30039;51.462;6.892;2023-01-29T07:43:17;46.97;;;20.13;;
44328;SDS011;30039;51.462;6.892;2023-01-29T07:46:03;46.08;;;19.90;;
44328;SDS011;30039;51.462;6.892;2023-01-29T07:48:52;48.75;;;19.85;;
44328;SDS011;30039;51.462;6.892;2023-01-29T07:51:40;43.72;;;18.90;;
44328;SDS011;30039;51.462;6.892;2023-01-29T07:54:28;49.58;;;19.90;;
44328;SDS011;30039;51.462;6.892;2023-01-29T08:00:19;68.57;;;29.30;;
44328;SDS011;30039;51.462;6.892;2023-01-29T08:03:08;47.97;;;20.83;;
44328;SDS011;30039;51.462;6.892;2023-01-29T08:05:56;45.05;;;20.42;;
44328;SDS011;30039;51.462;6.892;2023-01-29T08:08:42;45.08;;;19.73;;
44328;SDS011;30039;51.462;6.892;2023-01-29T08:11:28;46.42;;;19.10;;
44328;SDS011;30039;51.462;6.892;2023-01-29T08:14:14;42.38;;;18.73;;
44328;SDS011;30039;51.462;6.892;2023-01-29T08:17:00;42.78;;;19.40;;
44328;SDS011;30039;51.462;6.892;2023-01-29T08:19:46;44.28;;;20.60;;
44328;SDS011;30039;51.462;6.892;2023-01-29T08:22:32;46.92;;;18.77;;
44328;SDS011;30039;51.462;6.892;2023-01-29T08:25:18;42.33;;;19.98;;
44328;SDS011;30039;51.462;6.892;2023-01-29T08:28:06;48.38;;;20.13;;
44328;SDS011;30039;51.462;6.892;2023-01-29T08:30:52;45.85;;;20.00;;
44328;SDS011;30039;51.462;6.892;2023-01-29T08:33:40;47.40;;;21.08;;
44328;SDS011;30039;51.462;6.892;2023-01-29T08:36:26;43.90;;;18.83;;
44328;SDS011;30039;51.462;6.892;2023-01-29T08:39:12;47.55;;;19.65;;
44328;SDS011;30039;51.462;6.892;2023-01-29T08:41:59;46.03;;;20.23;;
44328;SDS011;30039;51.462;6.892;2023-01-29T08:44:47;45.00;;;20.35;;
44328;SDS011;30039;51.462;6.892;2023-01-29T08:47:49;41.17;;;19.02;;
44328;SDS011;30039;51.462;6.892;2023-01-29T08:50:35;41.45;;;19.27;;
44328;SDS011;30039;51.462;6.892;2023-01-29T08:53:24;42.22;;;19.20;;
44328;SDS011;30039;51.462;6.892;2023-01-29T08:56:11;44.58;;;18.20;;
44328;SDS011;30039;51.462;6.892;2023-01-29T08:58:57;47.83;;;18.92;;
44328;SDS011;30039;51.462;6.892;2023-01-29T09:01:43;48.67;;;20.27;;
44328;SDS011;30039;51.462;6.892;2023-01-29T09:04:29;40.88;;;19.55;;
44328;SDS011;30039;51.462;6.892;2023-01-29T09:07:16;46.55;;;20.27;;
44328;SDS011;30039;51.462;6.892;2023-01-29T09:10:02;44.80;;;21.25;;
44328;SDS011;30039;51.462;6.892;2023-01-29T09:12:51;47.38;;;21.20;;
44328;SDS011;30039;51.462;6.892;2023-01-29T09:15:44;45.58;;;20.00;;
44328;SDS011;30039;51.462;6.892;2023-01-29T09:18:30;46.63;;;19.50;;
44328;SDS011;30039;51.462;6.892;2023-01-29T09:21:16;45.88;;;19.38;;
44328;SDS011;30039;51.462;6.892;2023-01-29T09:24:02;47.28;;;20.05;;
44328;SDS011;30039;51.462;6.892;2023-01-29T09:26:48;47.63;;;19.08;;
44328;SDS011;30039;51.462;6.892;2023-01-29T09:29:35;49.28;;;21.27;;
44328;SDS011;30039;51.462;6.892;2023-01-29T09:32:20;41.47;;;19.70;;
44328;SDS011;30039;51.462;6.892;2023-01-29T09:35:07;42.90;;;20.10;;
44328;SDS011;30039;51.462;6.892;2023-01-29T09:37:53;40.97;;;18.73;;
44328;SDS011;30039;51.462;6.892;2023-01-29T09:43:46;45.65;;;19.23;;
44328;SDS011;30039;51.462;6.892;2023-01-29T09:46:34;45.70;;;20.55;;
44328;SDS011;30039;51.462;6.892;2023-01-29T09:49:25;47.25;;;19.83;;
44328;SDS011;30039;51.462;6.892;2023-01-29T09:52:15;41.72;;;17.48;;
44328;SDS011;30039;51.462;6.892;2023-01-29T09:57:56;45.38;;;21.67;;
44328;SDS011;30039;51.462;6.892;2023-01-29T10:06:24;43.25;;;19.30;;
44328;SDS011;30039;51.462;6.892;2023-01-29T10:12:01;47.33;;;22.58;;
44328;SDS011;30039;51.462;6.892;2023-01-29T10:23:26;42.10;;;19.38;;
44328;SDS011;30039;51.462;6.892;2023-01-29T10:26:21;44.85;;;18.63;;
44328;SDS011;30039;51.462;6.892;2023-01-29T10:29:13;42.33;;;19.70;;
44328;SDS011;30039;51.462;6.892;2023-01-29T10:32:00;40.00;;;18.17;;
44328;SDS011;30039;51.462;6.892;2023-01-29T10:35:04;43.40;;;20.13;;
44328;SDS011;30039;51.462;6.892;2023-01-29T10:53:57;45.85;;;19.48;;
44328;SDS011;30039;51.462;6.892;2023-01-29T10:59:35;42.92;;;17.38;;
44328;SDS011;30039;51.462;6.892;2023-01-29T11:02:25;47.30;;;19.63;;
44328;SDS011;30039;51.462;6.892;2023-01-29T11:05:30;49.50;;;19.48;;
44328;SDS011;30039;51.462;6.892;2023-01-29T11:08:20;47.78;;;19.73;;
44328;SDS011;30039;51.462;6.892;2023-01-29T11:11:16;41.72;;;19.55;;
44328;SDS011;30039;51.462;6.892;2023-01-29T11:14:03;38.80;;;16.77;;
44328;SDS011;30039;51.462;6.892;2023-01-29T11:16:51;43.22;;;18.27;;
44328;SDS011;30039;51.462;6.892;2023-01-29T11:19:41;41.63;;;18.25;;
44328;SDS011;30039;51.462;6.892;2023-01-29T11:22:36;42.10;;;18.27;;
44328;SDS011;30039;51.462;6.892;2023-01-29T11:25:38;41.00;;;18.65;;
44328;SDS011;30039;51.462;6.892;2023-01-29T11:31:35;41.95;;;18.55;;
44328;SDS011;30039;51.462;6.892;2023-01-29T11:34:25;44.40;;;19.33;;
44328;SDS011;30039;51.462;6.892;2023-01-29T11:37:16;39.58;;;17.95;;
44328;SDS011;30039;51.462;6.892;2023-01-29T11:46:04;39.40;;;18.80;;
44328;SDS011;30039;51.462;6.892;2023-01-29T11:48:51;42.25;;;20.45;;
44328;SDS011;30039;51.462;6.892;2023-01-29T11:51:41;38.38;;;17.23;;
44328;SDS011;30039;51.462;6.892;2023-01-29T11:54:29;41.05;;;18.35;;
44328;SDS011;30039;51.462;6.892;2023-01-29T11:57:20;41.78;;;18.15;;
44328;SDS011;30039;51.462;6.892;2023-01-29T12:03:13;40.28;;;17.92;;
44328;SDS011;30039;51.462;6.892;2023-01-29T12:06:35;43.03;;;19.00;;
44328;SDS011;30039;51.462;6.892;2023-01-29T12:09:15;42.78;;;19.20;;
44328;SDS011;30039;51.462;6.892;2023-01-29T12:15:20;42.10;;;18.15;;
44328;SDS011;30039;51.462;6.892;2023-01-29T12:21:12;47.25;;;20.30;;
44328;SDS011;30039;51.462;6.892;2023-01-29T12:24:00;44.33;;;18.85;;
44328;SDS011;30039;51.462;6.892;2023-01-29T12:26:54;42.28;;;19.88;;
44328;SDS011;30039;51.462;6.892;2023-01-29T12:30:04;41.10;;;18.13;;
44328;SDS011;30039;51.462;6.892;2023-01-29T12:35:52;44.60;;;18.60;;
44328;SDS011;30039;51.462;6.892;2023-01-29T12:38:40;42.95;;;19.05;;
44328;SDS011;30039;51.462;6.892;2023-01-29T12:47:25;45.47;;;18.83;;
44328;SDS011;30039;51.462;6.892;2023-01-29T13:05:14;42.33;;;18.83;;
44328;SDS011;30039;51.462;6.892;2023-01-29T13:08:04;47.35;;;18.00;;
44328;SDS011;30039;51.462;6.892;2023-01-29T13:10:52;40.40;;;17.92;;
44328;SDS011;30039;51.462;6.892;2023-01-29T13:13:52;38.08;;;16.73;;
44328;SDS011;30039;51.462;6.892;2023-01-29T13:16:43;41.50;;;17.67;;
44328;SDS011;30039;51.462;6.892;2023-01-29T13:19:41;41.95;;;17.40;;
44328;SDS011;30039;51.462;6.892;2023-01-29T13:22:33;40.67;;;16.10;;
44328;SDS011;30039;51.462;6.892;2023-01-29T13:25:21;41.95;;;17.15;;
44328;SDS011;30039;51.462;6.892;2023-01-29T13:28:17;38.53;;;15.35;;
44328;SDS011;30039;51.462;6.892;2023-01-29T13:31:17;41.35;;;17.40;;
44328;SDS011;30039;51.462;6.892;2023-01-29T13:34:07;38.95;;;16.63;;
44328;SDS011;30039;51.462;6.892;2023-01-29T13:36:56;46.70;;;19.95;;
44328;SDS011;30039;51.462;6.892;2023-01-29T13:39:51;42.50;;;18.52;;
44328;SDS011;30039;51.462;6.892;2023-01-29T13:42:40;43.95;;;19.60;;
44328;SDS011;30039;51.462;6.892;2023-01-29T13:45:33;39.92;;;17.70;;
44328;SDS011;30039;51.462;6.892;2023-01-29T13:48:27;53.05;;;22.80;;
44328;SDS011;30039;51.462;6.892;2023-01-29T13:51:18;42.20;;;18.10;;
44328;SDS011;30039;51.462;6.892;2023-01-29T13:54:06;36.35;;;15.77;;
44328;SDS011;30039;51.462;6.892;2023-01-29T13:56:55;39.17;;;16.35;;
44328;SDS011;30039;51.462;6.892;2023-01-29T13:59:54;39.00;;;16.77;;
44328;SDS011;30039;51.462;6.892;2023-01-29T14:02:40;40.67;;;17.73;;
44328;SDS011;30039;51.462;6.892;2023-01-29T14:14:48;35.35;;;16.38;;
44328;SDS011;30039;51.462;6.892;2023-01-29T14:17:11;40.60;;;17.20;;
44328;SDS011;30039;51.462;6.892;2023-01-29T14:20:00;36.42;;;16.98;;
44328;SDS011;30039;51.462;6.892;2023-01-29T14:22:55;38.55;;;17.20;;
44328;SDS011;30039;51.462;6.892;2023-01-29T14:25:42;39.67;;;16.80;;
44328;SDS011;30039;51.462;6.892;2023-01-29T14:28:28;37.33;;;16.80;;
44328;SDS011;30039;51.462;6.892;2023-01-29T14:31:25;41.20;;;18.10;;
44328;SDS011;30039;51.462;6.892;2023-01-29T14:34:19;37.28;;;16.77;;
44328;SDS011;30039;51.462;6.892;2023-01-29T14:43:07;38.28;;;17.30;;
44328;SDS011;30039;51.462;6.892;2023-01-29T14:45:53;41.30;;;17.58;;
44328;SDS011;30039;51.462;6.892;2023-01-29T14:48:45;38.92;;;16.15;;
44328;SDS011;30039;51.462;6.892;2023-01-29T14:51:33;40.22;;;17.45;;
44328;SDS011;30039;51.462;6.892;2023-01-29T14:54:28;43.75;;;18.90;;
44328;SDS011;30039;51.462;6.892;2023-01-29T14:57:18;38.85;;;17.20;;
44328;SDS011;30039;51.462;6.892;2023-01-29T15:00:14;38.50;;;17.45;;
44328;SDS011;30039;51.462;6.892;2023-01-29T15:03:03;37.88;;;17.55;;
44328;SDS011;30039;51.462;6.892;2023-01-29T15:05:58;40.97;;;17.63;;
44328;SDS011;30039;51.462;6.892;2023-01-29T15:08:51;40.25;;;16.27;;
44328;SDS011;30039;51.462;6.892;2023-01-29T15:11:49;37.25;;;16.67;;
44328;SDS011;30039;51.462;6.892;2023-01-29T15:14:37;43.83;;;17.17;;
44328;SDS011;30039;51.462;6.892;2023-01-29T15:20:38;39.83;;;17.50;;
44328;SDS011;30039;51.462;6.892;2023-01-29T15:23:28;38.17;;;17.70;;
44328;SDS011;30039;51.462;6.892;2023-01-29T15:26:18;39.85;;;17.27;;
44328;SDS011;30039;51.462;6.892;2023-01-29T15:29:05;36.83;;;16.67;;
44328;SDS011;30039;51.462;6.892;2023-01-29T15:31:51;39.70;;;17.23;;
44328;SDS011;30039;51.462;6.892;2023-01-29T15:34:40;40.03;;;16.63;;
44328;SDS011;30039;51.462;6.892;2023-01-29T15:37:32;38.63;;;17.15;;
44328;SDS011;30039;51.462;6.892;2023-01-29T15:40:19;35.85;;;15.65;;
44328;SDS011;30039;51.462;6.892;2023-01-29T15:43:21;37.42;;;15.80;;
44328;SDS011;30039;51.462;6.892;2023-01-29T15:46:11;36.17;;;15.30;;
44328;SDS011;30039;51.462;6.892;2023-01-29T15:49:04;35.45;;;15.40;;
44328;SDS011;30039;51.462;6.892;2023-01-29T15:51:53;38.00;;;17.45;;
44328;SDS011;30039;51.462;6.892;2023-01-29T15:54:42;40.08;;;16.92;;
44328;SDS011;30039;51.462;6.892;2023-01-29T15:57:32;33.72;;;14.50;;
44328;SDS011;30039;51.462;6.892;2023-01-29T16:00:24;32.88;;;14.73;;
44328;SDS011;30039;51.462;6.892;2023-01-29T16:03:15;31.23;;;13.75;;
44328;SDS011;30039;51.462;6.892;2023-01-29T16:06:01;28.70;;;13.85;;
44328;SDS011;30039;51.462;6.892;2023-01-29T16:08:48;29.30;;;13.57;;
44328;SDS011;30039;51.462;6.892;2023-01-29T16:11:35;29.95;;;13.23;;
44328;SDS011;30039;51.462;6.892;2023-01-29T16:14:22;26.25;;;12.65;;
44328;SDS011;30039;51.462;6.892;2023-01-29T16:17:20;28.27;;;12.85;;
44328;SDS011;30039;51.462;6.892;2023-01-29T16:20:19;29.17;;;12.30;;
44328;SDS011;30039;51.462;6.892;2023-01-29T16:23:06;31.60;;;12.32;;
44328;SDS011;30039;51.462;6.892;2023-01-29T16:25:55;26.35;;;12.68;;
44328;SDS011;30039;51.462;6.892;2023-01-29T16:28:45;27.35;;;12.50;;
44328;SDS011;30039;51.462;6.892;2023-01-29T16:31:32;27.35;;;12.88;;
44328;SDS011;30039;51.462;6.892;2023-01-29T16:34:24;28.23;;;13.68;;
44328;SDS011;30039;51.462;6.892;2023-01-29T16:37:18;24.85;;;11.70;;
44328;SDS011;30039;51.462;6.892;2023-01-29T16:43:43;25.02;;;11.85;;
44328;SDS011;30039;51.462;6.892;2023-01-29T16:46:46;27.40;;;12.63;;
44328;SDS011;30039;51.462;6.892;2023-01-29T16:57:59;27.08;;;11.30;;
44328;SDS011;30039;51.462;6.892;2023-01-29T17:01:00;25.75;;;12.00;;
44328;SDS011;30039;51.462;6.892;2023-01-29T17:03:49;26.27;;;11.43;;
44328;SDS011;30039;51.462;6.892;2023-01-29T17:06:39;29.88;;;12.98;;
44328;SDS011;30039;51.462;6.892;2023-01-29T17:12:16;26.52;;;12.40;;
44328;SDS011;30039;51.462;6.892;2023-01-29T17:15:04;31.98;;;13.90;;
44328;SDS011;30039;51.462;6.892;2023-01-29T17:18:16;29.67;;;12.85;;
44328;SDS011;30039;51.462;6.892;2023-01-29T17:21:02;29.98;;;13.35;;
44328;SDS011;30039;51.462;6.892;2023-01-29T17:23:51;27.90;;;13.25;;
44328;SDS011;30039;51.462;6.892;2023-01-29T17:26:39;28.13;;;12.52;;
44328;SDS011;30039;51.462;6.892;2023-01-29T17:29:29;30.05;;;13.15;;
44328;SDS011;30039;51.462;6.892;2023-01-29T17:32:15;23.88;;;11.02;;
44328;SDS011;30039;51.462;6.892;2023-01-29T17:35:05;28.55;;;13.10;;
44328;SDS011;30039;51.462;6.892;2023-01-29T17:37:51;26.98;;;14.02;;
44328;SDS011;30039;51.462;6.892;2023-01-29T17:40:56;31.73;;;13.45;;
44328;SDS011;30039;51.462;6.892;2023-01-29T17:46:28;32.33;;;13.68;;
44328;SDS011;30039;51.462;6.892;2023-01-29T17:49:21;30.02;;;13.60;;
44328;SDS011;30039;51.462;6.892;2023-01-29T17:52:15;31.10;;;13.75;;
44328;SDS011;30039;51.462;6.892;2023-01-29T17:55:01;32.25;;;14.35;;
44328;SDS011;30039;51.462;6.892;2023-01-29T17:57:46;31.08;;;14.38;;
44328;SDS011;30039;51.462;6.892;2023-01-29T18:00:38;32.83;;;14.48;;
44328;SDS011;30039;51.462;6.892;2023-01-29T18:03:24;28.88;;;13.00;;
44328;SDS011;30039;51.462;6.892;2023-01-29T18:06:16;34.20;;;15.20;;
44328;SDS011;30039;51.462;6.892;2023-01-29T18:09:04;30.60;;;13.60;;
44328;SDS011;30039;51.462;6.892;2023-01-29T18:11:50;31.70;;;13.70;;
44328;SDS011;30039;51.462;6.892;2023-01-29T18:14:36;28.65;;;13.15;;
44328;SDS011;30039;51.462;6.892;2023-01-29T18:17:22;30.73;;;13.88;;
44328;SDS011;30039;51.462;6.892;2023-01-29T18:20:26;30.83;;;13.55;;
44328;SDS011;30039;51.462;6.892;2023-01-29T18:23:12;30.73;;;13.90;;
44328;SDS011;30039;51.462;6.892;2023-01-29T18:26:00;29.08;;;12.00;;
44328;SDS011;30039;51.462;6.892;2023-01-29T18:28:45;29.65;;;14.10;;
44328;SDS011;30039;51.462;6.892;2023-01-29T18:31:31;29.83;;;12.35;;
44328;SDS011;30039;51.462;6.892;2023-01-29T18:34:17;27.77;;;12.77;;
44328;SDS011;30039;51.462;6.892;2023-01-29T18:37:05;31.55;;;14.43;;
44328;SDS011;30039;51.462;6.892;2023-01-29T18:39:50;29.38;;;14.07;;
44328;SDS011;30039;51.462;6.892;2023-01-29T18:42:37;30.35;;;13.60;;
44328;SDS011;30039;51.462;6.892;2023-01-29T18:45:24;22.67;;;11.77;;
44328;SDS011;30039;51.462;6.892;2023-01-29T18:48:11;33.17;;;14.13;;
44328;SDS011;30039;51.462;6.892;2023-01-29T18:50:58;29.40;;;13.15;;
44328;SDS011;30039;51.462;6.892;2023-01-29T18:53:47;27.63;;;13.27;;
44328;SDS011;30039;51.462;6.892;2023-01-29T18:56:33;27.30;;;12.63;;
44328;SDS011;30039;51.462;6.892;2023-01-29T18:59:19;27.08;;;13.57;;
44328;SDS011;30039;51.462;6.892;2023-01-29T19:02:05;31.15;;;14.23;;
44328;SDS011;30039;51.462;6.892;2023-01-29T19:04:52;29.88;;;13.20;;
44328;SDS011;30039;51.462;6.892;2023-01-29T19:07:39;31.63;;;13.48;;
44328;SDS011;30039;51.462;6.892;2023-01-29T19:10:25;28.73;;;13.32;;
44328;SDS011;30039;51.462;6.892;2023-01-29T19:13:13;30.40;;;14.15;;
44328;SDS011;30039;51.462;6.892;2023-01-29T19:15:58;27.25;;;12.52;;
44328;SDS011;30039;51.462;6.892;2023-01-29T19:18:44;29.92;;;13.82;;